Time;durP1;ratioP1;P1;durP2;ratioP2;P2;SDS_P1;SDS_P2;PMS_P1;PMS_P2;Temp;Humidity;BMP_temperature;BMP_pressure;BME280_temperature;BME280_humidity;BME280_pressure;Samples;Min_cycle;Max_cycle;Signal;HPM_P1;HPM_P2
2023/05/25 00:01:54;;;;;;;19.33;7.80;;;16.10;99.90;;;16.52;69.78;102497.31;5080669;28;20072;-66
2023/05/25 00:04:25;;;;;;;21.98;7.30;;;16.10;99.90;;;16.56;69.73;102495.53;5082459;28;20044;-66
2023/05/25 00:06:54;;;;;;;16.02;6.78;;;16.10;99.90;;;16.55;70.12;102496.44;5082461;28;20048;-66
2023/05/25 00:09:24;;;;;;;22.92;7.68;;;16.10;99.90;;;16.56;70.14;102493.75;5081418;28;20036;-66
2023/05/25 00:11:52;;;;;;;18.17;6.73;;;16.10;99.90;;;16.52;70.45;102491.97;5083025;28;20180;-66
2023/05/25 00:14:21;;;;;;;13.32;6.28;;;16.10;99.90;;;16.54;70.32;102500.88;5113061;28;20287;-66
2023/05/25 00:16:50;;;;;;;21.00;6.88;;;16.10;99.90;;;16.53;70.33;102495.56;5083763;28;20083;-66
2023/05/25 00:19:18;;;;;;;15.07;6.90;;;16.00;99.90;;;16.51;70.62;102498.19;5076374;28;20048;-66
2023/05/25 00:21:48;;;;;;;17.48;6.85;;;16.00;99.90;;;16.50;70.47;102504.44;5083110;28;20146;-66
2023/05/25 00:24:17;;;;;;;20.50;7.57;;;16.00;99.90;;;16.42;71.04;102494.63;5081204;28;20082;-66
2023/05/25 00:26:46;;;;;;;17.77;7.15;;;16.00;99.90;;;16.46;71.06;102499.97;5083121;28;20489;-66
2023/05/25 00:29:14;;;;;;;21.60;8.18;;;16.00;99.90;;;16.47;70.77;102487.50;5085397;28;20040;-66
2023/05/25 00:31:42;;;;;;;15.00;7.50;;;16.00;99.90;;;16.48;70.97;102495.56;5084876;28;20048;-66
2023/05/25 00:34:11;;;;;;;21.77;7.63;;;16.00;99.90;;;16.47;71.08;102499.09;5086233;28;20087;-66
2023/05/25 00:36:42;;;;;;;20.45;7.57;;;16.00;99.90;;;16.52;71.19;102499.09;5082641;28;20417;-66
2023/05/25 00:39:12;;;;;;;17.45;7.68;;;16.10;99.90;;;16.51;71.18;102498.19;5087005;28;20058;-66
2023/05/25 00:41:41;;;;;;;20.43;8.10;;;16.10;99.90;;;16.51;71.40;102505.34;5079885;28;20555;-66
2023/05/25 00:44:09;;;;;;;16.10;7.72;;;16.10;99.90;;;16.49;71.28;102497.31;5084817;28;20036;-66
2023/05/25 00:46:38;;;;;;;19.45;8.13;;;16.10;99.90;;;16.34;71.13;102465.28;5084277;28;20113;-66
2023/05/25 00:49:07;;;;;;;20.67;8.55;;;16.10;99.90;;;16.46;71.20;102502.66;5085287;28;20105;-66
2023/05/25 00:51:36;;;;;;;24.98;8.80;;;16.10;99.90;;;16.40;71.57;102499.97;5085061;28;20544;-66
2023/05/25 00:57:51;;;;;;;21.08;8.98;;;16.00;99.90;;;16.27;71.99;102490.22;5084190;28;20506;-66
2023/05/25 01:00:20;;;;;;;19.05;9.10;;;15.90;99.90;;;16.23;72.57;102497.34;5084557;28;20052;-66
2023/05/25 01:02:55;;;;;;;24.05;9.38;;;15.80;99.90;;;16.25;72.79;102505.34;5085516;28;20110;-66
2023/05/25 01:05:27;;;;;;;14.60;8.48;;;15.80;99.90;;;16.12;72.92;102484.91;5082985;28;20036;-66
2023/05/25 01:08:00;;;;;;;20.05;8.23;;;15.80;99.90;;;16.22;73.21;102516.03;5079447;28;20405;-66
2023/05/25 01:10:33;;;;;;;19.80;8.70;;;15.80;99.90;;;16.28;73.09;102516.03;5084248;28;20047;-67
2023/05/25 01:13:03;;;;;;;19.67;8.32;;;15.80;99.90;;;16.17;73.63;102513.38;5084062;28;20051;-66
2023/05/25 01:15:33;;;;;;;19.30;8.38;;;15.70;99.90;;;16.19;73.81;102518.72;5086081;28;20051;-66
2023/05/25 01:18:02;;;;;;;17.60;8.02;;;15.70;99.90;;;16.21;73.88;102519.59;5082631;28;20033;-66
2023/05/25 01:20:30;;;;;;;23.52;8.55;;;15.70;99.90;;;16.23;74.11;102523.16;5053690;28;20037;-67
2023/05/25 01:24:16;;;;;;;21.45;9.00;;;15.80;99.90;;;16.31;73.84;102524.03;5101208;28;20489;-67
2023/05/25 01:26:54;;;;;;;20.30;8.40;;;15.80;99.90;;;16.29;73.86;102517.81;5064556;28;20090;-67
2023/05/25 01:29:26;;;;;;;17.95;8.00;;;15.90;99.90;;;16.35;74.17;102517.81;5080932;28;20036;-67
2023/05/25 01:31:56;;;;;;;17.08;8.38;;;15.90;99.90;;;16.34;74.16;102518.69;5084508;28;20138;-66
2023/05/25 01:34:26;;;;;;;20.77;8.48;;;15.90;99.90;;;16.44;74.03;102525.78;5085147;28;20135;-66
2023/05/25 01:36:55;;;;;;;20.98;7.88;;;16.00;99.90;;;16.38;74.12;102515.13;5082215;28;20438;-67
2023/05/25 01:39:24;;;;;;;18.02;7.93;;;16.00;99.90;;;16.39;73.84;102524.03;5085927;28;20044;-66
2023/05/25 01:41:53;;;;;;;18.60;8.73;;;16.00;99.90;;;16.36;74.04;102527.59;5078330;28;20048;-66
2023/05/25 01:44:22;;;;;;;23.67;8.98;;;16.00;99.90;;;15.64;73.81;102407.56;5085066;28;20052;-67
2023/05/25 01:46:58;;;;;;;19.20;8.40;;;16.00;99.90;;;16.34;73.87;102529.38;5098933;28;20071;-66
2023/05/25 01:49:34;;;;;;;19.65;8.23;;;15.90;99.90;;;16.35;74.07;102528.50;5083087;28;20035;-66
2023/05/25 01:52:13;;;;;;;20.20;7.85;;;15.90;99.90;;;16.33;74.15;102537.38;5078140;28;20052;-66
2023/05/25 01:54:52;;;;;;;20.43;8.37;;;15.90;99.90;;;16.26;74.26;102534.72;5082230;28;20499;-66
2023/05/25 01:57:23;;;;;;;19.25;8.40;;;15.80;99.90;;;16.28;74.04;102535.63;5101179;28;20040;-66
2023/05/25 01:59:56;;;;;;;19.73;8.18;;;15.90;99.90;;;16.25;74.54;102538.31;5064719;28;20077;-66
2023/05/25 02:02:26;;;;;;;17.85;9.00;;;15.80;99.90;;;16.32;74.20;102533.81;5099723;28;20055;-66
2023/05/25 02:04:55;;;;;;;19.50;8.45;;;15.80;99.90;;;16.27;74.54;102539.19;5099004;28;20124;-66
2023/05/25 02:07:23;;;;;;;21.45;8.73;;;15.80;99.90;;;16.28;74.45;102534.72;5081777;28;20044;-66
2023/05/25 02:09:52;;;;;;;16.90;8.45;;;15.80;99.90;;;16.29;74.70;102531.16;5084268;28;20101;-66
2023/05/25 02:12:21;;;;;;;16.98;8.43;;;15.80;99.90;;;16.24;74.61;102532.94;5081976;28;20547;-66
2023/05/25 02:14:50;;;;;;;16.63;8.27;;;15.80;99.90;;;16.23;74.66;102526.72;5085244;28;20043;-66
2023/05/25 02:17:18;;;;;;;20.60;8.52;;;15.80;99.90;;;16.22;74.63;102534.72;5085053;28;20282;-66
2023/05/25 02:19:51;;;;;;;16.70;8.30;;;15.80;99.90;;;16.17;74.98;102541.84;5080631;28;20049;-66
2023/05/25 02:22:20;;;;;;;26.15;9.18;;;15.80;99.90;;;16.17;75.10;102533.84;5083784;28;20050;-66
2023/05/25 02:24:49;;;;;;;18.65;8.68;;;15.80;99.90;;;16.09;75.33;102541.88;5083144;28;20059;-66
2023/05/25 02:27:17;;;;;;;20.48;8.32;;;15.70;99.90;;;16.04;75.35;102542.75;5098217;28;20508;-66
2023/05/25 02:29:47;;;;;;;19.38;8.07;;;15.60;99.90;;;16.00;75.63;102541.88;5082500;28;20087;-66
2023/05/25 02:32:16;;;;;;;19.13;8.63;;;15.60;99.90;;;15.96;75.68;102548.09;5081550;28;20040;-66
2023/05/25 02:34:45;;;;;;;19.08;8.57;;;15.50;99.90;;;15.95;75.90;102545.44;5100481;28;20881;-66
2023/05/25 02:37:14;;;;;;;21.67;8.73;;;15.50;99.90;;;15.86;76.11;102540.97;5077592;28;20044;-66
2023/05/25 02:39:43;;;;;;;16.23;8.30;;;15.50;99.90;;;15.93;76.55;102549.88;5083131;28;20075;-66
2023/05/25 02:42:14;;;;;;;21.17;9.18;;;15.50;99.90;;;15.92;76.59;102550.75;5080656;28;20079;-66
2023/05/25 02:44:47;;;;;;;17.95;9.38;;;15.50;99.90;;;15.85;76.38;102539.19;5098403;28;20566;-66
2023/05/25 02:47:17;;;;;;;21.58;9.27;;;15.50;99.90;;;15.83;76.57;102551.63;5066246;28;20052;-66
2023/05/25 02:49:46;;;;;;;21.60;9.38;;;15.40;99.90;;;15.82;76.53;102554.31;5079359;28;20139;-66
2023/05/25 02:52:15;;;;;;;18.90;9.80;;;15.40;99.90;;;15.84;77.00;102555.19;5092400;28;20139;-66
2023/05/25 02:54:43;;;;;;;17.65;8.95;;;15.40;99.90;;;15.72;77.35;102552.50;5092960;28;20048;-66
2023/05/25 02:57:18;;;;;;;21.20;9.23;;;15.30;99.90;;;15.63;77.67;102553.41;5081892;28;20055;-66
2023/05/25 02:59:47;;;;;;;17.63;9.40;;;15.30;99.90;;;15.66;77.44;102557.84;5065324;28;20080;-67
2023/05/25 03:02:19;;;;;;;18.60;9.40;;;15.30;99.90;;;15.67;77.64;102552.53;5080753;28;20039;-67
2023/05/25 03:04:52;;;;;;;20.83;9.93;;;15.30;99.90;;;15.66;77.70;102547.19;5059717;28;20387;-66
2023/05/25 03:07:21;;;;;;;19.73;9.65;;;15.30;99.90;;;15.70;77.63;102549.84;5059968;28;20045;-67
2023/05/25 03:09:50;;;;;;;24.33;10.50;;;15.30;99.90;;;15.67;77.79;102563.19;5083628;28;20067;-66
2023/05/25 03:12:19;;;;;;;18.42;9.68;;;15.30;99.90;;;15.63;77.99;102565.84;5064467;28;20103;-67
2023/05/25 03:14:47;;;;;;;21.58;9.73;;;15.20;99.90;;;15.60;77.87;102569.38;5081391;28;20083;-66
2023/05/25 03:17:17;;;;;;;22.88;10.07;;;15.20;99.90;;;15.37;78.13;102539.97;5098045;28;20044;-66
2023/05/25 03:19:46;;;;;;;22.85;9.75;;;15.10;99.90;;;15.61;78.06;102575.63;5080511;28;20048;-67
2023/05/25 03:22:14;;;;;;;24.02;10.15;;;15.10;99.90;;;15.59;78.23;102572.94;5099178;28;20139;-66
2023/05/25 03:24:42;;;;;;;17.45;9.02;;;15.10;99.90;;;15.61;78.53;102563.16;5080833;28;20048;-66
2023/05/25 03:27:11;;;;;;;22.60;10.57;;;15.20;99.90;;;15.63;78.43;102574.75;5082780;28;20051;-66
2023/05/25 03:29:39;;;;;;;20.25;9.88;;;15.20;99.90;;;15.65;78.58;102564.06;5075345;28;20048;-66
2023/05/25 03:32:09;;;;;;;18.02;10.48;;;15.20;99.90;;;15.63;78.62;102564.06;5082966;28;20056;-66
2023/05/25 03:34:40;;;;;;;19.98;11.00;;;15.20;99.90;;;15.57;78.23;102568.47;5081658;28;20434;-66
2023/05/25 03:37:09;;;;;;;19.85;10.70;;;15.10;99.90;;;15.57;78.48;102568.47;5081148;28;20145;-66
2023/05/25 03:39:38;;;;;;;23.45;11.13;;;15.10;99.90;;;15.50;78.55;102562.25;5097832;28;20048;-66
2023/05/25 03:42:07;;;;;;;22.88;10.68;;;15.10;99.90;;;15.49;78.74;102572.91;5098530;28;20482;-66
2023/05/25 03:44:38;;;;;;;21.35;10.65;;;15.10;99.90;;;15.45;78.87;102577.34;5080704;28;20094;-66
2023/05/25 03:47:08;;;;;;;23.60;10.90;;;15.10;99.90;;;15.43;79.12;102580.91;5091880;28;20115;-66
2023/05/25 03:49:36;;;;;;;22.55;11.32;;;15.00;99.90;;;15.45;79.25;102580.00;5083743;28;20068;-67
2023/05/25 03:52:07;;;;;;;18.30;10.35;;;15.00;99.90;;;15.46;79.33;102575.56;5081068;28;20436;-67
2023/05/25 03:54:35;;;;;;;;;;;15.00;99.90;;;15.37;79.23;102576.38;5098422;28;20059;-66
2023/05/25 03:57:05;;;;;;;19.17;11.25;;;15.00;99.90;;;15.38;79.56;102579.09;5081895;28;20331;-66
2023/05/25 03:59:33;;;;;;;22.65;10.77;;;15.00;99.90;;;15.41;79.45;102585.31;5081490;28;20072;-66
2023/05/25 04:02:01;;;;;;;19.90;11.23;;;15.00;99.90;;;15.34;79.55;102582.63;5101866;28;20056;-66
2023/05/25 04:04:29;;;;;;;23.60;11.40;;;14.90;99.90;;;15.42;79.73;102581.78;5084786;28;20049;-66
2023/05/25 04:06:58;;;;;;;25.65;12.20;;;14.90;99.90;;;15.45;79.55;102579.16;5087412;28;20101;-66
2023/05/25 04:09:28;;;;;;;20.15;11.45;;;15.00;99.90;;;15.45;79.36;102587.16;5083743;28;20412;-67
2023/05/25 04:11:57;;;;;;;19.83;11.23;;;15.00;99.90;;;15.37;79.69;102584.41;5080636;28;20049;-66
2023/05/25 04:14:25;;;;;;;23.52;11.65;;;15.00;99.90;;;15.36;79.96;102593.28;5102358;28;20074;-66
2023/05/25 04:16:53;;;;;;;24.98;12.40;;;14.90;99.90;;;15.32;79.88;102591.50;5084920;28;20398;-66
2023/05/25 04:19:22;;;;;;;28.20;12.02;;;14.90;99.90;;;15.40;80.30;102597.75;5084567;28;20076;-66
2023/05/25 04:21:50;;;;;;;21.40;11.40;;;14.90;99.90;;;15.42;79.88;102596.03;5084206;28;20040;-66
2023/05/25 04:24:19;;;;;;;24.52;11.73;;;15.00;99.90;;;15.47;79.58;102583.56;5085018;28;20443;-66
2023/05/25 04:26:49;;;;;;;23.27;11.65;;;15.00;99.90;;;15.54;79.34;102584.50;5084672;28;20036;-66
2023/05/25 04:29:18;;;;;;;23.88;12.43;;;15.10;99.90;;;15.49;79.47;102588.91;5099866;28;20044;-66
2023/05/25 04:32:08;;;;;;;18.52;11.18;;;15.10;99.90;;;15.49;79.74;102595.13;5084261;28;20051;-66
2023/05/25 04:34:51;;;;;;;20.65;11.43;;;15.10;99.90;;;15.51;79.59;102601.38;5080326;28;20044;-66
2023/05/25 04:37:26;;;;;;;22.88;11.40;;;15.10;99.90;;;15.50;79.95;102610.28;5083924;28;20508;-67
2023/05/25 04:39:57;;;;;;;21.88;11.32;;;15.10;99.90;;;15.51;80.35;102608.47;5102104;28;20050;-66
2023/05/25 04:42:27;;;;;;;23.48;12.50;;;15.10;99.90;;;15.62;80.27;102612.09;5082217;28;20086;-66
2023/05/25 04:45:00;;;;;;;25.00;12.25;;;15.10;99.90;;;15.70;80.06;102613.00;5096246;28;20140;-66
2023/05/25 04:47:29;;;;;;;22.00;11.63;;;15.20;99.90;;;15.71;79.87;102617.44;5084436;28;20044;-66
2023/05/25 04:49:58;;;;;;;25.20;11.82;;;15.20;99.90;;;15.77;79.79;102622.78;5083493;28;20402;-66
2023/05/25 04:52:26;;;;;;;21.88;11.90;;;15.30;99.90;;;15.80;79.70;102615.69;5100748;28;20109;-66
2023/05/25 04:54:55;;;;;;;24.23;11.98;;;15.30;99.90;;;15.93;78.97;102622.81;5100745;28;20098;-66
2023/05/25 04:57:23;;;;;;;19.90;11.25;;;15.50;99.90;;;16.01;78.82;102625.50;5084024;28;20468;-66
2023/05/25 04:59:53;;;;;;;18.23;10.80;;;15.60;99.90;;;16.03;78.59;102624.63;5068436;28;20086;-66
2023/05/25 05:02:21;;;;;;;21.73;11.38;;;15.60;99.90;;;16.14;78.21;102627.31;5098648;28;20044;-67
2023/05/25 05:04:52;;;;;;;23.33;11.60;;;15.70;99.90;;;16.22;78.06;102625.50;5053459;28;20505;-67
2023/05/25 05:07:21;;;;;;;18.88;11.57;;;15.80;99.90;;;16.27;77.64;102630.00;5085857;28;20044;-67
2023/05/25 05:09:50;;;;;;;21.55;11.02;;;15.90;99.90;;;16.34;77.32;102630.00;5066464;28;20048;-66
2023/05/25 05:12:18;;;;;;;20.38;11.35;;;16.00;99.90;;;16.42;76.84;102629.09;5084137;28;20044;-67
2023/05/25 05:14:54;;;;;;;24.30;11.50;;;16.00;99.90;;;16.43;77.06;102641.56;5067758;28;20076;-66
2023/05/25 05:17:25;;;;;;;18.23;10.77;;;16.00;99.90;;;16.45;77.03;102637.13;5081827;28;20098;-66
2023/05/25 05:19:53;;;;;;;20.85;10.95;;;16.10;99.90;;;16.58;76.95;102638.03;5078819;28;20063;-67
2023/05/25 05:22:23;;;;;;;20.15;11.48;;;16.10;99.90;;;16.59;77.23;102640.69;5084473;28;20059;-66
2023/05/25 05:24:52;;;;;;;22.35;11.23;;;16.20;99.90;;;16.69;77.35;102637.13;5098918;28;20055;-66
2023/05/25 05:27:25;;;;;;;21.98;12.38;;;16.20;99.90;;;16.62;77.25;102613.97;5084258;28;20056;-66
2023/05/25 05:30:00;;;;;;;21.25;11.70;;;16.30;99.90;;;16.93;77.03;102642.44;5068200;28;20044;-66
2023/05/25 05:32:29;;;;;;;19.37;11.20;;;16.50;99.90;;;16.98;76.64;102637.97;5081069;28;20135;-67
2023/05/25 05:34:58;;;;;;;19.50;11.27;;;16.60;99.90;;;17.15;76.58;102653.94;5094278;28;20305;-66
2023/05/25 05:37:38;;;;;;;23.15;11.23;;;16.70;99.90;;;17.20;76.13;102653.94;5082495;28;20404;-66
2023/05/25 05:40:09;;;;;;;20.60;11.57;;;16.80;99.90;;;17.31;75.16;102657.47;5084531;28;20048;-66
2023/05/25 05:42:39;;;;;;;20.33;10.88;;;16.90;99.90;;;17.37;74.35;102652.09;5081002;28;20064;-66
2023/05/25 05:45:11;;;;;;;18.60;10.77;;;16.90;99.90;;;17.42;74.07;102656.53;5093800;28;20582;-66
2023/05/25 05:47:39;;;;;;;;;;;17.00;99.90;;;17.52;73.56;102654.75;5085544;28;20050;-66
2023/05/25 05:50:08;;;;;;;15.93;9.43;;;17.10;99.90;;;17.54;72.95;102656.53;5065279;28;19927;-67
2023/05/25 05:52:38;;;;;;;17.25;9.30;;;17.20;99.90;;;17.49;72.27;102652.09;5082683;28;20048;-66
2023/05/25 05:55:08;;;;;;;16.25;9.52;;;17.30;99.90;;;17.71;72.30;102660.00;5099461;28;20056;-67
2023/05/25 05:57:38;;;;;;;18.75;9.70;;;17.30;99.90;;;17.64;71.21;102668.97;5081373;28;20064;-67
2023/05/25 06:00:10;;;;;;;16.92;9.30;;;17.30;99.90;;;17.57;70.56;102672.59;5083680;28;20093;-67
2023/05/25 06:02:46;;;;;;;21.27;9.50;;;17.20;99.90;;;17.44;70.04;102676.16;5079869;28;20067;-67
2023/05/25 06:05:20;;;;;;;17.75;8.70;;;17.10;99.90;;;17.57;70.66;102669.00;5098630;28;20056;-66
2023/05/25 06:07:49;;;;;;;18.85;9.07;;;17.20;99.90;;;17.53;70.24;102683.31;5084339;28;20044;-66
2023/05/25 06:10:19;;;;;;;14.95;9.35;;;17.20;99.90;;;17.63;70.26;102683.28;5097943;28;20045;-66
2023/05/25 06:12:48;;;;;;;16.73;8.52;;;17.30;99.90;;;17.74;69.64;102680.53;5092955;28;20122;-67
2023/05/25 06:15:18;;;;;;;19.30;9.07;;;17.30;99.90;;;17.87;69.92;102690.25;5077936;28;20096;-66
2023/05/25 06:17:48;;;;;;;16.95;8.02;;;17.50;99.90;;;17.82;68.96;102694.78;5082957;28;20408;-66
2023/05/25 06:20:17;;;;;;;17.75;8.85;;;17.50;99.90;;;17.75;68.50;102682.31;5081652;28;20052;-67
2023/05/25 06:22:47;;;;;;;13.30;8.85;;;17.40;99.90;;;17.47;69.76;102680.59;5098555;28;20048;-66
2023/05/25 06:25:16;;;;;;;21.33;9.20;;;17.20;99.90;;;17.57;70.70;102661.88;5083541;28;20455;-66
2023/05/25 06:27:45;;;;;;;21.77;9.98;;;17.30;99.90;;;17.53;69.21;102683.31;5080711;28;20434;-66
2023/05/25 06:30:14;;;;;;;17.13;8.95;;;17.30;99.90;;;17.62;69.19;102691.28;5083392;28;20040;-66
2023/05/25 06:32:44;;;;;;;16.08;8.82;;;17.30;99.90;;;17.28;70.74;102694.94;5076464;28;20056;-66
2023/05/25 06:35:18;;;;;;;20.35;8.68;;;16.90;99.90;;;17.50;70.30;102696.72;5093791;28;20862;-67
2023/05/25 06:37:49;;;;;;;17.52;9.18;;;17.10;99.90;;;17.51;70.25;102688.66;5081763;28;20048;-66
2023/05/25 06:40:19;;;;;;;19.63;9.15;;;17.20;99.90;;;17.66;70.11;102691.28;5098941;28;20080;-66
2023/05/25 06:42:48;;;;;;;15.50;8.95;;;17.30;99.90;;;17.73;70.16;102694.81;5097361;28;20055;-66
2023/05/25 06:45:41;;;;;;;18.63;8.60;;;17.30;99.90;;;17.93;70.55;102698.28;5081272;28;20043;-67
2023/05/25 06:48:11;;;;;;;19.05;9.70;;;17.50;99.90;;;17.98;69.74;102701.84;5081340;28;20048;-66
2023/05/25 06:50:41;;;;;;;15.82;8.40;;;17.60;99.90;;;18.04;69.25;102693.72;5059347;28;20051;-66
2023/05/25 06:53:10;;;;;;;19.73;8.45;;;17.70;99.90;;;18.08;68.95;102711.56;5077699;28;20052;-67
2023/05/25 06:55:40;;;;;;;15.68;8.27;;;17.70;99.90;;;18.17;68.77;102707.97;5083805;28;20087;-67
2023/05/25 06:58:08;;;;;;;16.70;8.70;;;17.80;99.90;;;18.19;68.58;102715.09;5082104;28;20048;-67
2023/05/25 07:00:37;;;;;;;17.90;8.75;;;17.80;99.90;;;18.14;68.52;102719.56;5082717;28;20048;-66
2023/05/25 07:03:05;;;;;;;19.17;9.52;;;17.80;99.90;;;18.07;68.85;102717.84;5082589;28;20041;-67
2023/05/25 07:05:35;;;;;;;13.57;8.38;;;17.70;99.90;;;18.07;69.11;102723.19;5081981;28;20040;-66
2023/05/25 07:08:03;;;;;;;16.57;8.83;;;17.70;99.90;;;18.08;68.95;102724.97;5083670;28;20047;-66
2023/05/25 07:10:32;;;;;;;17.25;8.50;;;17.70;99.90;;;17.91;68.74;102706.31;5080912;28;20102;-67
2023/05/25 07:13:00;;;;;;;14.82;8.40;;;17.70;99.90;;;18.04;68.61;102733.91;5084173;28;20071;-66
2023/05/25 07:15:28;;;;;;;15.43;8.13;;;17.70;99.90;;;17.98;68.16;102723.25;5084141;28;20101;-67
2023/05/25 07:17:57;;;;;;;16.25;7.65;;;17.60;99.90;;;18.04;68.26;102731.22;5080687;28;20052;-67
2023/05/25 07:20:26;;;;;;;16.48;8.57;;;17.60;99.90;;;18.07;68.54;102739.28;5082211;28;20501;-66
2023/05/25 07:22:56;;;;;;;14.82;7.97;;;17.70;99.90;;;18.14;69.22;102737.47;5080599;28;20064;-66
2023/05/25 07:25:24;;;;;;;13.83;8.77;;;17.80;99.90;;;18.21;69.08;102737.41;5097971;28;20093;-67
2023/05/25 07:27:53;;;;;;;17.40;8.65;;;17.90;99.90;;;18.43;69.02;102739.06;5082542;28;20044;-67
2023/05/25 07:30:22;;;;;;;12.48;7.70;;;18.00;99.90;;;18.52;68.21;102744.38;5081279;28;20041;-67
2023/05/25 07:32:50;;;;;;;11.75;6.97;;;18.20;99.90;;;17.72;68.82;102742.13;5083661;28;20111;-67
2023/05/25 07:35:19;;;;;;;14.43;7.10;;;17.50;99.90;;;17.63;66.36;102741.25;5081065;28;20449;-67
2023/05/25 07:37:58;;;;;;;13.65;6.78;;;17.50;99.90;;;17.17;67.66;102735.06;5079093;28;20456;-67
2023/05/25 07:40:27;;;;;;;11.98;6.97;;;17.00;99.90;;;16.89;69.01;102730.66;5083896;28;20048;-67
2023/05/25 07:42:55;;;;;;;13.20;7.65;;;16.60;99.90;;;16.45;70.96;102743.97;5085756;28;20052;-67
2023/05/25 07:45:24;;;;;;;14.63;7.18;;;16.20;99.90;;;16.98;70.53;102736.00;5086811;28;20048;-67
2023/05/25 07:47:52;;;;;;;14.02;7.95;;;16.50;99.90;;;16.88;69.27;102745.81;5084958;28;20044;-66
2023/05/25 07:50:22;;;;;;;15.07;8.00;;;16.50;99.90;;;17.17;69.54;102744.91;5087604;28;20046;-66
2023/05/25 07:52:50;;;;;;;15.13;8.00;;;16.70;99.90;;;16.42;71.78;102743.06;5080068;28;20141;-66
2023/05/25 07:55:20;;;;;;;14.27;8.27;;;16.20;99.90;;;16.89;71.24;102746.69;5080725;28;20347;-67
2023/05/25 07:57:48;;;;;;;13.93;8.18;;;16.50;99.90;;;17.31;71.30;102757.34;5087525;28;20044;-66
2023/05/25 08:00:19;;;;;;;15.93;8.65;;;16.80;99.90;;;17.49;71.28;102776.09;5085240;28;20115;-67
2023/05/25 08:02:47;;;;;;;14.90;9.75;;;17.00;99.90;;;17.71;70.29;102763.53;5086005;28;20051;-66
2023/05/25 08:05:16;;;;;;;16.65;9.25;;;17.30;99.90;;;17.85;69.57;102767.94;5086069;28;20063;-67
2023/05/25 08:07:45;;;;;;;16.52;8.52;;;17.50;99.90;;;18.04;68.89;102780.34;5084859;28;20497;-67
2023/05/25 08:10:14;;;;;;;14.70;8.88;;;17.70;99.90;;;18.19;68.71;102774.03;5086895;28;20066;-67
2023/05/25 08:12:43;;;;;;;17.83;9.10;;;17.80;99.90;;;18.33;68.09;102772.16;5079679;28;20091;-67
2023/05/25 08:15:17;;;;;;;17.67;9.63;;;18.00;99.90;;;17.96;68.23;102773.25;5072564;28;20099;-67
2023/05/25 08:17:48;;;;;;;16.77;9.02;;;17.70;99.90;;;18.28;68.54;102770.41;5086328;28;20148;-67
2023/05/25 08:20:16;;;;;;;;;;;17.90;99.90;;;18.35;67.26;102773.03;5085766;28;20390;-68
2023/05/25 08:22:45;;;;;;;19.35;9.23;;;18.10;99.90;;;18.44;67.10;102780.16;5085086;28;20292;-67
2023/05/25 08:25:13;;;;;;;14.45;8.35;;;18.00;99.90;;;18.55;66.31;102780.97;5086212;28;20044;-67
2023/05/25 08:27:43;;;;;;;15.93;8.40;;;18.20;99.90;;;18.64;66.11;102780.94;5084327;28;20052;-67
2023/05/25 08:30:12;;;;;;;15.90;8.33;;;18.30;99.90;;;18.72;65.59;102784.44;5086961;28;20036;-67
2023/05/25 08:32:40;;;;;;;12.68;8.20;;;18.30;99.90;;;18.90;65.74;102795.03;5079376;28;20375;-67
2023/05/25 08:35:09;;;;;;;12.18;7.90;;;18.50;99.90;;;18.98;65.59;102794.97;5086702;28;20040;-67
2023/05/25 08:37:38;;;;;;;14.73;7.43;;;18.60;99.90;;;18.99;64.16;102799.44;5084141;28;20446;-67
2023/05/25 08:40:14;;;;;;;11.43;7.15;;;18.70;99.90;;;18.99;63.75;102786.91;5085691;28;20036;-66
2023/05/25 08:42:44;;;;;;;11.93;7.60;;;18.60;99.90;;;18.96;63.48;102791.41;5085931;28;20105;-66
2023/05/25 08:45:13;;;;;;;15.68;7.40;;;18.60;99.90;;;18.98;63.03;102795.88;5083652;28;20154;-66
2023/05/25 08:48:01;;;;;;;11.73;7.10;;;18.70;99.90;;;18.99;63.22;102792.25;5082311;28;20045;-68
2023/05/25 08:50:32;;;;;;;13.43;7.40;;;18.70;99.90;;;18.98;63.12;102794.97;5099786;28;20063;-66
2023/05/25 08:53:03;;;;;;;13.50;6.88;;;18.60;99.90;;;18.89;62.45;102795.94;5086496;28;20493;-67
2023/05/25 08:55:35;;;;;;;11.55;6.95;;;18.60;99.90;;;18.84;61.97;102800.44;5079495;28;20110;-67
2023/05/25 08:58:15;;;;;;;12.82;6.70;;;18.50;99.90;;;18.77;61.92;102796.03;5085595;28;20094;-66
2023/05/25 09:00:52;;;;;;;15.07;6.93;;;18.40;99.90;;;18.74;62.67;102799.63;5085972;28;20052;-67
2023/05/25 09:03:20;;;;;;;14.77;7.20;;;18.40;99.90;;;18.73;62.71;102803.22;5080081;28;20084;-67
2023/05/25 09:05:50;;;;;;;10.80;6.75;;;18.40;99.90;;;18.67;62.22;102803.25;5085619;28;20079;-67
2023/05/25 09:08:20;;;;;;;9.48;6.32;;;18.30;99.90;;;18.64;62.52;102797.03;5083960;28;20044;-67
2023/05/25 09:10:50;;;;;;;14.20;7.05;;;18.30;99.90;;;18.62;62.60;102804.19;5084472;28;20481;-67
2023/05/25 09:13:20;;;;;;;13.47;7.00;;;18.30;99.90;;;18.65;62.70;102805.06;5085097;28;20068;-66
2023/05/25 09:15:51;;;;;;;10.80;7.28;;;18.30;99.90;;;18.69;62.68;102803.22;5083037;28;20425;-67
2023/05/25 09:18:20;;;;;;;11.70;6.63;;;18.30;99.90;;;18.62;62.38;102805.06;5094294;28;20052;-67
2023/05/25 09:20:48;;;;;;;12.80;7.50;;;18.30;99.90;;;18.52;62.21;102805.16;5085627;28;20036;-67
2023/05/25 09:23:17;;;;;;;14.00;6.60;;;18.20;99.90;;;18.47;62.37;102802.47;5083218;28;20102;-67
2023/05/25 09:25:49;;;;;;;12.05;6.35;;;18.20;99.90;;;18.49;63.37;102803.34;5084933;28;20109;-66
2023/05/25 09:28:20;;;;;;;12.10;6.75;;;18.10;99.90;;;18.55;63.58;102807.78;5084413;28;20108;-66
2023/05/25 09:30:52;;;;;;;13.68;6.72;;;18.20;99.90;;;18.54;63.82;102811.38;5083185;28;20539;-66
2023/05/25 09:33:20;;;;;;;9.85;6.10;;;18.20;99.90;;;18.67;63.95;102808.63;5085874;28;20499;-66
2023/05/25 09:35:50;;;;;;;10.48;6.15;;;18.30;99.90;;;18.75;63.66;102813.94;5078288;28;20094;-66
2023/05/25 09:38:19;;;;;;;10.48;5.95;;;18.40;99.90;;;18.63;63.38;102806.84;5085403;28;20382;-67
2023/05/25 09:40:47;;;;;;;13.80;6.78;;;18.30;99.90;;;18.66;63.64;102804.13;5083113;28;20060;-66
2023/05/25 09:43:16;;;;;;;11.55;6.80;;;18.30;99.90;;;18.72;63.98;102805.88;5100145;28;20079;-67
2023/05/25 09:46:06;;;;;;;10.02;6.10;;;18.30;99.90;;;18.72;63.52;102805.88;5078165;28;20508;-67
2023/05/25 09:48:35;;;;;;;13.88;6.25;;;18.40;99.90;;;18.80;63.80;102812.09;5084497;28;20132;-67
2023/05/25 09:51:05;;;;;;;11.57;6.40;;;18.40;99.90;;;18.82;63.64;102813.88;5083640;28;20068;-67
2023/05/25 09:53:33;;;;;;;10.77;6.05;;;18.50;99.90;;;18.84;63.34;102808.47;5083381;28;20040;-66
2023/05/25 09:56:02;;;;;;;11.35;5.65;;;18.50;99.90;;;18.86;62.62;102814.72;5099666;28;20481;-67
2023/05/25 09:58:31;;;;;;;10.45;5.97;;;18.50;99.90;;;18.87;61.86;102812.03;5080731;28;20045;-67
2023/05/25 10:01:00;;;;;;;9.68;5.55;;;18.50;99.90;;;18.97;62.04;102807.47;5085068;28;20465;-67
2023/05/25 10:03:30;;;;;;;8.98;5.93;;;18.60;99.90;;;19.01;61.87;102813.75;5077501;28;20036;-67
2023/05/25 10:05:58;;;;;;;12.18;6.07;;;18.60;99.90;;;19.11;61.62;102810.94;5082194;28;20040;-67
2023/05/25 10:08:28;;;;;;;9.40;6.07;;;18.80;99.90;;;18.98;61.07;102808.38;5084491;28;20125;-68
2023/05/25 10:10:57;;;;;;;13.75;6.90;;;18.70;99.90;;;19.26;61.63;102808.13;5082807;28;20044;-68
2023/05/25 10:13:27;;;;;;;11.38;5.47;;;18.80;99.90;;;19.43;60.87;102813.38;5082429;28;20101;-69
2023/05/25 10:15:57;;;;;;;10.30;6.18;;;19.10;99.90;;;19.60;60.32;102803.34;5083826;28;20040;-68
2023/05/25 10:18:34;;;;;;;11.33;5.87;;;19.20;99.90;;;19.79;59.96;102810.31;5097802;28;20094;-68
2023/05/25 10:21:05;;;;;;;10.80;6.43;;;19.40;99.90;;;19.64;58.89;102780.94;5078649;28;20285;-69
2023/05/25 10:23:40;;;;;;;11.90;6.45;;;19.50;99.90;;;19.85;58.79;102812.91;5083718;28;20059;-68